createdAt,value
2023-02-25T00:02:38.910Z,99624.53
2023-02-25T00:05:44.085Z,99621.42
2023-02-25T00:08:50.363Z,99614.31
2023-02-25T00:11:54.850Z,99604.23
2023-02-25T00:14:59.341Z,99608.41
2023-02-25T00:18:03.231Z,99603.16
2023-02-25T00:21:07.538Z,99597.72
2023-02-25T00:24:16.991Z,99597.09
2023-02-25T00:27:18.885Z,99587.83
2023-02-25T00:30:23.699Z,99585.81
2023-02-25T00:33:28.334Z,99584.14
2023-02-25T00:36:30.195Z,99579.86
2023-02-25T00:39:22.679Z,99575.70
2023-02-25T00:42:28.473Z,99577.59
2023-02-25T00:45:32.247Z,99576.34
2023-02-25T00:48:37.088Z,99558.19
2023-02-25T00:51:43.754Z,99553.34
2023-02-25T00:54:48.595Z,99550.49
2023-02-25T00:57:53.643Z,99545.72
2023-02-25T01:05:09.187Z,99537.02
2023-02-25T01:11:40.798Z,99527.59
2023-02-25T01:14:51.376Z,99517.92
2023-02-25T01:21:36.053Z,99510.44
2023-02-25T01:24:42.468Z,99499.00
2023-02-25T01:27:47.194Z,99503.58
2023-02-25T01:30:53.212Z,99498.52
2023-02-25T01:33:59.202Z,99491.63
2023-02-25T01:37:03.461Z,99485.84
2023-02-25T01:40:08.784Z,99482.75
2023-02-25T01:43:13.966Z,99469.91
2023-02-25T01:46:18.642Z,99478.81
2023-02-25T01:49:43.364Z,99468.34
2023-02-25T01:52:48.916Z,99472.74
2023-02-25T01:55:53.925Z,99454.27
2023-02-25T01:58:57.605Z,99467.28
2023-02-25T02:02:02.309Z,99463.17
2023-02-25T02:05:07.309Z,99466.70
2023-02-25T02:08:12.656Z,99477.52
2023-02-25T02:11:18.614Z,99463.73
2023-02-25T02:14:25.340Z,99457.38
2023-02-25T02:17:36.234Z,99453.77
2023-02-25T02:20:47.344Z,99457.88
2023-02-25T02:24:11.091Z,99462.99
2023-02-25T02:27:37.409Z,99461.48
2023-02-25T02:31:16.648Z,99455.45
2023-02-25T02:34:34.487Z,99456.12
2023-02-25T02:37:48.349Z,99455.06
2023-02-25T02:41:13.149Z,99456.45
2023-02-25T02:44:25.384Z,99458.95
2023-02-25T02:47:47.733Z,99458.33
2023-02-25T02:50:57.297Z,99446.06
2023-02-25T02:54:09.259Z,99445.68
2023-02-25T02:57:14.502Z,99436.94
2023-02-25T03:00:24.684Z,99435.30
2023-02-25T03:03:35.822Z,99426.51
2023-02-25T03:06:43.852Z,99425.91
2023-02-25T03:09:59.469Z,99416.23
2023-02-25T03:13:04.243Z,99426.00
2023-02-25T03:16:09.790Z,99422.73
2023-02-25T03:19:33.134Z,99418.09
2023-02-25T03:22:43.883Z,99411.63
2023-02-25T03:25:53.875Z,99418.44
2023-02-25T03:28:59.634Z,99410.86
2023-02-25T03:32:11.575Z,99406.94
2023-02-25T03:35:16.392Z,99404.99
2023-02-25T03:38:26.437Z,99397.84
2023-02-25T03:41:32.149Z,99390.84
2023-02-25T03:44:40.470Z,99393.37
2023-02-25T03:47:47.236Z,99391.13
2023-02-25T03:51:00.352Z,99389.48
2023-02-25T03:54:06.249Z,99381.36
2023-02-25T03:57:11.261Z,99373.84
2023-02-25T04:00:19.218Z,99366.06
2023-02-25T04:03:24.313Z,99359.41
2023-02-25T04:06:21.540Z,99358.44
2023-02-25T04:09:28.265Z,99359.86
2023-02-25T04:12:34.396Z,99359.05
2023-02-25T04:15:38.638Z,99357.86
2023-02-25T04:18:44.607Z,99355.80
2023-02-25T04:21:51.533Z,99346.73
2023-02-25T04:24:56.010Z,99348.45
2023-02-25T04:27:59.768Z,99349.27
2023-02-25T04:30:59.340Z,99342.47
2023-02-25T04:34:04.404Z,99339.34
2023-02-25T04:37:12.304Z,99336.84
2023-02-25T04:40:17.928Z,99328.23
2023-02-25T04:43:23.557Z,99347.55
2023-02-25T04:46:28.792Z,99341.52
2023-02-25T04:49:34.703Z,99332.66
2023-02-25T04:52:38.000Z,99331.30
2023-02-25T04:55:43.797Z,99332.66
2023-02-25T04:58:48.960Z,99333.14
2023-02-25T05:01:55.507Z,99328.36
2023-02-25T05:05:00.862Z,99323.88
2023-02-25T05:11:10.452Z,99327.05
2023-02-25T05:14:15.569Z,99318.13
2023-02-25T05:17:23.017Z,99316.14
2023-02-25T05:20:28.115Z,99311.36
2023-02-25T05:23:33.956Z,99321.13
2023-02-25T05:26:39.203Z,99309.33
2023-02-25T05:29:43.916Z,99314.70
2023-02-25T05:32:48.333Z,99324.66
2023-02-25T05:35:54.442Z,99315.31
2023-02-25T05:38:59.986Z,99311.98
2023-02-25T05:42:04.332Z,99305.50
2023-02-25T05:45:09.705Z,99308.41
2023-02-25T05:48:14.785Z,99309.59
2023-02-25T05:51:20.531Z,99309.30
2023-02-25T05:54:24.782Z,99313.53
2023-02-25T05:57:30.465Z,99302.20
2023-02-25T06:00:35.286Z,99298.83
2023-02-25T06:03:40.662Z,99295.42
2023-02-25T06:06:45.976Z,99293.39
2023-02-25T06:09:51.253Z,99289.45
2023-02-25T06:12:56.490Z,99297.36
2023-02-25T06:16:00.781Z,99287.36
2023-02-25T06:19:05.593Z,99287.08
2023-02-25T06:22:10.141Z,99286.20
2023-02-25T06:25:16.000Z,99286.22
2023-02-25T06:28:20.669Z,99281.25
2023-02-25T06:31:26.937Z,99282.80
2023-02-25T06:34:31.462Z,99267.23
2023-02-25T06:37:35.583Z,99281.16
2023-02-25T06:40:40.987Z,99272.16
2023-02-25T06:43:46.118Z,99276.23
2023-02-25T06:46:52.152Z,99270.79
2023-02-25T06:49:58.995Z,99269.10
2023-02-25T06:52:57.414Z,99262.38
2023-02-25T06:56:02.076Z,99270.66
2023-02-25T06:59:06.525Z,99266.69
2023-02-25T07:02:11.452Z,99254.42
2023-02-25T07:05:16.753Z,99251.38
2023-02-25T07:08:21.817Z,99253.19
2023-02-25T07:11:36.232Z,99241.69
2023-02-25T07:14:41.616Z,99249.49
2023-02-25T07:17:46.100Z,99235.28
2023-02-25T07:20:50.914Z,99229.19
2023-02-25T07:23:56.341Z,99224.28
2023-02-25T07:27:04.213Z,99231.92
2023-02-25T07:30:08.546Z,99223.29
2023-02-25T07:33:13.468Z,99221.45
2023-02-25T07:36:12.057Z,99223.98
2023-02-25T07:39:03.813Z,99219.92
2023-02-25T07:42:07.729Z,99217.22
2023-02-25T07:45:13.367Z,99231.63
2023-02-25T07:48:17.498Z,99225.37
2023-02-25T07:51:29.842Z,99217.38
2023-02-25T07:54:34.598Z,99215.72
2023-02-25T07:57:39.503Z,99216.03
2023-02-25T08:00:45.343Z,99217.41
2023-02-25T08:03:49.493Z,99216.72
2023-02-25T08:06:55.134Z,99209.56
2023-02-25T08:09:59.172Z,99211.94
2023-02-25T08:13:04.325Z,99211.58
2023-02-25T08:16:09.391Z,99201.03
2023-02-25T08:19:07.978Z,99196.43
2023-02-25T08:21:55.000Z,99196.55
2023-02-25T08:24:49.400Z,99193.35
2023-02-25T08:27:35.521Z,99193.03
2023-02-25T08:30:31.374Z,99193.73
2023-02-25T08:33:24.244Z,99195.19
2023-02-25T08:36:30.381Z,99196.99
2023-02-25T08:39:35.295Z,99188.67
2023-02-25T08:42:38.547Z,99197.88
2023-02-25T08:45:43.735Z,99194.95
2023-02-25T08:48:49.640Z,99191.02
2023-02-25T08:51:54.628Z,99184.19
2023-02-25T08:54:59.645Z,99188.55
2023-02-25T08:58:03.188Z,99180.75
2023-02-25T09:01:08.443Z,99182.60
2023-02-25T09:04:13.084Z,99176.41
2023-02-25T09:07:20.868Z,99165.50
2023-02-25T09:10:26.863Z,99171.84
2023-02-25T09:13:34.471Z,99166.70
2023-02-25T09:16:41.713Z,99152.58
2023-02-25T09:19:46.748Z,99148.42
2023-02-25T09:22:52.723Z,99148.63
2023-02-25T09:25:51.049Z,99136.41
2023-02-25T09:28:57.465Z,99128.20
2023-02-25T09:32:01.777Z,99124.68
2023-02-25T09:35:09.809Z,99117.59
2023-02-25T09:38:30.634Z,99096.64
2023-02-25T09:41:56.096Z,99094.41
2023-02-25T09:45:06.538Z,99090.48
2023-02-25T09:48:13.663Z,99079.57
2023-02-25T09:51:15.303Z,99072.02
2023-02-25T09:54:51.402Z,99062.48
2023-02-25T09:57:56.514Z,99055.48
2023-02-25T10:01:04.583Z,99055.23
2023-02-25T10:04:18.633Z,99053.24
2023-02-25T10:07:30.066Z,99045.70
2023-02-25T10:10:58.510Z,99037.61
2023-02-25T10:14:26.887Z,99037.28
2023-02-25T10:17:40.771Z,99024.95
2023-02-25T10:20:59.562Z,99021.42
2023-02-25T10:24:04.073Z,99021.62
2023-02-25T10:27:11.071Z,99011.41
2023-02-25T10:30:26.268Z,99009.80
2023-02-25T10:33:35.049Z,99008.06
2023-02-25T10:36:46.298Z,99003.88
2023-02-25T10:39:53.090Z,99004.92
2023-02-25T10:43:04.424Z,98993.06
2023-02-25T10:46:23.756Z,99001.14
2023-02-25T10:49:32.720Z,99005.36
2023-02-25T10:52:36.409Z,99007.61
2023-02-25T10:55:57.986Z,99003.53
2023-02-25T10:59:20.420Z,98994.94
2023-02-25T11:02:39.479Z,98985.45
2023-02-25T11:05:54.842Z,98985.23
2023-02-25T11:08:59.833Z,98973.23
2023-02-25T11:12:30.312Z,98971.98
2023-02-25T11:15:45.656Z,98978.63
2023-02-25T11:18:47.238Z,98976.72
2023-02-25T11:21:53.863Z,98960.50
2023-02-25T11:24:58.586Z,98956.73
2023-02-25T11:28:08.137Z,98950.09
2023-02-25T11:31:36.468Z,98952.84
2023-02-25T11:34:42.530Z,98945.89
2023-02-25T11:37:57.690Z,98940.01
2023-02-25T11:41:03.996Z,98937.36
2023-02-25T11:44:08.721Z,98925.22
2023-02-25T11:47:23.760Z,98927.90
2023-02-25T11:50:53.802Z,98926.03
2023-02-25T11:54:02.163Z,98919.55
2023-02-25T11:57:20.014Z,98926.34
2023-02-25T12:01:01.969Z,98921.70
2023-02-25T12:04:23.263Z,98922.12
2023-02-25T12:08:05.110Z,98918.81
2023-02-25T12:11:33.012Z,98919.23
2023-02-25T12:15:02.696Z,98917.25
2023-02-25T12:18:32.829Z,98910.06
2023-02-25T12:22:02.708Z,98904.47
2023-02-25T12:25:28.567Z,98903.22
2023-02-25T12:28:54.807Z,98906.95
2023-02-25T12:32:20.963Z,98896.48
2023-02-25T12:35:50.232Z,98884.51
2023-02-25T12:39:33.463Z,98884.70
2023-02-25T12:43:01.303Z,98878.52
2023-02-25T12:46:04.807Z,98887.69
2023-02-25T12:49:33.860Z,98885.83
2023-02-25T12:52:49.935Z,98886.34
2023-02-25T12:56:10.815Z,98876.54
2023-02-25T12:59:46.784Z,98884.38
2023-02-25T13:03:09.301Z,98883.38
2023-02-25T13:06:36.602Z,98881.29
2023-02-25T13:10:09.586Z,98864.66
2023-02-25T13:13:35.339Z,98862.86
2023-02-25T13:16:59.898Z,98853.23
2023-02-25T13:20:09.171Z,98844.11
2023-02-25T13:23:35.061Z,98841.06
2023-02-25T13:27:03.942Z,98831.88
2023-02-25T13:30:31.760Z,98841.20
2023-02-25T13:34:05.257Z,98847.52
2023-02-25T13:37:17.055Z,98846.97
2023-02-25T13:40:43.880Z,98834.48
2023-02-25T13:44:20.764Z,98828.30
2023-02-25T13:47:32.838Z,98819.45
2023-02-25T13:50:50.144Z,98810.10
2023-02-25T13:54:26.020Z,98808.73
2023-02-25T13:57:57.239Z,98817.77
2023-02-25T14:01:22.634Z,98818.05
2023-02-25T14:04:30.779Z,98815.00
2023-02-25T14:07:54.295Z,98814.77
2023-02-25T14:11:10.573Z,98811.33
2023-02-25T14:14:35.384Z,98815.03
2023-02-25T14:18:18.015Z,98806.95
2023-02-25T14:21:57.887Z,98803.78
2023-02-25T14:25:21.684Z,98800.88
2023-02-25T14:28:33.349Z,98800.23
2023-02-25T14:31:56.138Z,98795.83
2023-02-25T14:35:23.259Z,98798.03
2023-02-25T14:38:42.819Z,98793.80
2023-02-25T14:41:59.641Z,98790.11
2023-02-25T14:45:11.049Z,98793.97
2023-02-25T14:48:18.618Z,98787.38
2023-02-25T14:51:49.061Z,98793.86
2023-02-25T14:55:01.890Z,98793.50
2023-02-25T14:58:32.843Z,98800.16
2023-02-25T15:01:56.075Z,98792.80
2023-02-25T15:05:16.677Z,98790.29
2023-02-25T15:08:34.425Z,98794.64
2023-02-25T15:11:53.150Z,98799.45
2023-02-25T15:15:04.062Z,98792.86
2023-02-25T15:18:36.479Z,98789.70
2023-02-25T15:22:01.668Z,98793.81
2023-02-25T15:25:24.938Z,98777.80
2023-02-25T15:28:47.276Z,98776.00
2023-02-25T15:31:52.813Z,98769.73
2023-02-25T15:35:12.202Z,98769.13
2023-02-25T15:38:21.071Z,98763.28
2023-02-25T15:41:53.459Z,98754.16
2023-02-25T15:44:58.926Z,98766.80
2023-02-25T15:48:04.764Z,98757.64
2023-02-25T15:51:09.015Z,98764.39
2023-02-25T15:54:15.925Z,98766.53
2023-02-25T15:57:26.857Z,98764.02
2023-02-25T16:01:02.723Z,98774.52
2023-02-25T16:04:07.155Z,98780.20
2023-02-25T16:07:11.992Z,98783.86
2023-02-25T16:10:36.133Z,98782.50
2023-02-25T16:13:48.668Z,98782.08
2023-02-25T16:16:57.530Z,98783.22
2023-02-25T16:20:12.535Z,98777.25
2023-02-25T16:23:17.123Z,98783.09
2023-02-25T16:26:46.502Z,98784.77
2023-02-25T16:30:05.464Z,98792.34
2023-02-25T16:33:25.949Z,98779.84
2023-02-25T16:36:33.987Z,98787.19
2023-02-25T16:39:39.876Z,98780.98
2023-02-25T16:42:45.973Z,98780.55
2023-02-25T16:46:11.535Z,98782.88
2023-02-25T16:49:09.465Z,98774.91
2023-02-25T16:52:13.915Z,98779.84
2023-02-25T16:55:19.551Z,98775.28
2023-02-25T16:58:37.059Z,98778.72
2023-02-25T17:01:43.497Z,98780.43
2023-02-25T17:04:50.766Z,98776.03
2023-02-25T17:07:56.125Z,98776.06
2023-02-25T17:11:04.661Z,98772.48
2023-02-25T17:14:10.953Z,98774.69
2023-02-25T17:17:14.982Z,98775.23
2023-02-25T17:20:22.353Z,98760.71
2023-02-25T17:23:29.079Z,98762.29
2023-02-25T17:26:33.501Z,98763.35
2023-02-25T17:29:47.220Z,98761.02
2023-02-25T17:32:51.743Z,98758.33
2023-02-25T17:35:55.912Z,98767.08
2023-02-25T17:39:00.538Z,98770.55
2023-02-25T17:42:05.232Z,98767.38
2023-02-25T17:45:10.868Z,98765.17
2023-02-25T17:48:16.051Z,98760.03
2023-02-25T17:51:21.582Z,98757.22
2023-02-25T17:54:31.014Z,98755.11
2023-02-25T17:57:36.713Z,98746.22
2023-02-25T18:00:46.763Z,98755.20
2023-02-25T18:04:00.175Z,98744.73
2023-02-25T18:07:06.225Z,98746.23
2023-02-25T18:10:11.880Z,98750.45
2023-02-25T18:13:18.226Z,98742.05
2023-02-25T18:16:27.412Z,98750.37
2023-02-25T18:19:50.436Z,98750.77
2023-02-25T18:22:57.603Z,98742.41
2023-02-25T18:26:07.452Z,98744.42
2023-02-25T18:29:11.585Z,98732.17
2023-02-25T18:32:17.072Z,98724.61
2023-02-25T18:35:23.056Z,98717.69
2023-02-25T18:38:32.233Z,98717.25
2023-02-25T18:41:36.975Z,98716.73
2023-02-25T18:44:40.659Z,98720.81
2023-02-25T18:47:44.035Z,98717.56
2023-02-25T18:50:51.069Z,98719.13
2023-02-25T18:53:54.850Z,98707.33
2023-02-25T18:56:58.887Z,98717.76
2023-02-25T19:00:04.220Z,98729.75
2023-02-25T19:03:11.647Z,98734.13
2023-02-25T19:06:16.203Z,98744.87
2023-02-25T19:09:20.064Z,98737.20
2023-02-25T19:12:27.469Z,98746.45
2023-02-25T19:15:34.637Z,98727.60
2023-02-25T19:18:38.642Z,98722.97
2023-02-25T19:21:44.824Z,98721.94
2023-02-25T19:24:49.899Z,98717.45
2023-02-25T19:27:54.640Z,98704.62
2023-02-25T19:30:59.830Z,98704.70
2023-02-25T19:34:04.458Z,98716.14
2023-02-25T19:37:09.280Z,98720.24
2023-02-25T19:40:16.143Z,98718.88
2023-02-25T19:43:20.805Z,98715.77
2023-02-25T19:46:26.324Z,98706.91
2023-02-25T19:49:30.844Z,98716.26
2023-02-25T19:52:35.738Z,98716.66
2023-02-25T19:55:39.551Z,98730.25
2023-02-25T19:58:44.753Z,98744.97
2023-02-25T20:01:48.974Z,98757.88
2023-02-25T20:04:54.387Z,98753.33
2023-02-25T20:07:59.203Z,98752.68
2023-02-25T20:11:03.113Z,98738.28
2023-02-25T20:14:07.852Z,98746.91
2023-02-25T20:17:12.199Z,98753.69
2023-02-25T20:20:16.736Z,98755.52
2023-02-25T20:23:20.969Z,98747.20
2023-02-25T20:26:30.206Z,98733.08
2023-02-25T20:29:35.140Z,98723.09
2023-02-25T20:32:39.608Z,98730.59
2023-02-25T20:35:44.944Z,98728.28
2023-02-25T20:38:50.633Z,98721.87
2023-02-25T20:41:57.256Z,98739.23
2023-02-25T20:45:02.944Z,98731.91
2023-02-25T20:48:07.908Z,98728.72
2023-02-25T20:51:13.570Z,98738.83
2023-02-25T20:54:18.178Z,98734.59
2023-02-25T20:57:26.248Z,98737.81
2023-02-25T21:00:33.068Z,98730.67
2023-02-25T21:03:38.172Z,98739.08
2023-02-25T21:06:44.144Z,98735.25
2023-02-25T21:09:49.085Z,98746.44
2023-02-25T21:12:54.299Z,98745.54
2023-02-25T21:15:59.422Z,98750.72
2023-02-25T21:19:05.452Z,98753.27
2023-02-25T21:22:09.993Z,98754.58
2023-02-25T21:25:16.260Z,98768.02
2023-02-25T21:28:20.082Z,98778.56
2023-02-25T21:31:28.174Z,98777.27
2023-02-25T21:34:33.064Z,98786.60
2023-02-25T21:37:39.904Z,98792.61
2023-02-25T21:40:44.256Z,98795.80
2023-02-25T21:43:49.191Z,98793.33
2023-02-25T21:46:55.477Z,98798.88
2023-02-25T21:50:02.185Z,98796.75
2023-02-25T21:53:07.580Z,98803.36
2023-02-25T21:56:16.615Z,98806.75
2023-02-25T21:59:21.020Z,98804.02
2023-02-25T22:02:25.800Z,98795.99
2023-02-25T22:05:30.950Z,98807.01
2023-02-25T22:08:35.186Z,98809.06
2023-02-25T22:11:42.540Z,98810.85
2023-02-25T22:14:46.805Z,98805.11
2023-02-25T22:17:51.189Z,98806.78
2023-02-25T22:20:57.224Z,98806.06
2023-02-25T22:24:02.864Z,98789.00
2023-02-25T22:27:07.924Z,98796.56
2023-02-25T22:30:13.437Z,98797.02
2023-02-25T22:33:19.569Z,98802.85
2023-02-25T22:36:25.257Z,98801.69
2023-02-25T22:39:29.361Z,98785.61
2023-02-25T22:42:33.597Z,98782.17
2023-02-25T22:45:39.476Z,98781.20
2023-02-25T22:48:44.444Z,98777.18
2023-02-25T22:51:52.616Z,98795.84
2023-02-25T22:54:57.639Z,98810.02
2023-02-25T22:58:02.794Z,98803.31
2023-02-25T23:01:07.162Z,98801.02
2023-02-25T23:04:15.104Z,98804.59
2023-02-25T23:07:21.041Z,98818.68
2023-02-25T23:10:26.610Z,98825.84
2023-02-25T23:13:30.654Z,98837.14
2023-02-25T23:16:38.558Z,98848.27
2023-02-25T23:19:42.638Z,98852.18
2023-02-25T23:22:48.776Z,98852.08
2023-02-25T23:25:55.358Z,98851.88
2023-02-25T23:29:00.714Z,98849.84
2023-02-25T23:32:06.239Z,98852.59
2023-02-25T23:35:10.756Z,98851.20
2023-02-25T23:38:15.779Z,98863.49
2023-02-25T23:41:20.828Z,98867.59
2023-02-25T23:44:19.909Z,98872.00
2023-02-25T23:47:06.275Z,98867.81
2023-02-25T23:49:57.774Z,98874.17
2023-02-25T23:52:50.837Z,98873.02
2023-02-25T23:55:54.933Z,98860.20
2023-02-25T23:59:03.917Z,98859.55
